createdAt,value
2018-07-06T00:01:58.601Z,5.60
2018-07-06T00:04:32.204Z,5.10
2018-07-06T00:07:05.941Z,5.13
2018-07-06T00:09:39.462Z,4.90
2018-07-06T00:12:13.271Z,5.17
2018-07-06T00:14:46.810Z,5.40
2018-07-06T00:17:20.471Z,4.87
2018-07-06T00:19:54.098Z,5.30
2018-07-06T00:22:27.609Z,5.20
2018-07-06T00:25:01.106Z,5.27
2018-07-06T00:27:34.918Z,5.27
2018-07-06T00:30:08.407Z,5.27
2018-07-06T00:32:42.029Z,4.90
2018-07-06T00:35:15.673Z,4.93
2018-07-06T00:37:49.160Z,5.20
2018-07-06T00:40:22.826Z,4.80
2018-07-06T00:42:56.346Z,5.37
2018-07-06T00:45:30.020Z,4.80
2018-07-06T00:48:03.690Z,5.30
2018-07-06T00:50:37.343Z,5.40
2018-07-06T00:53:11.090Z,5.60
2018-07-06T00:55:44.600Z,4.80
2018-07-06T00:58:22.659Z,4.83
2018-07-06T01:00:56.477Z,4.83
2018-07-06T01:03:30.965Z,4.73
2018-07-06T01:06:04.688Z,4.33
2018-07-06T01:08:38.368Z,4.20
2018-07-06T01:11:12.148Z,4.37
2018-07-06T01:13:45.891Z,4.00
2018-07-06T01:16:19.598Z,3.50
2018-07-06T01:18:53.233Z,3.97
2018-07-06T01:21:26.895Z,3.40
2018-07-06T01:24:00.674Z,3.00
2018-07-06T01:26:34.330Z,3.50
2018-07-06T01:29:09.732Z,3.30
2018-07-06T01:31:43.455Z,3.33
2018-07-06T01:34:16.997Z,3.63
2018-07-06T01:36:50.632Z,3.17
2018-07-06T01:39:24.208Z,3.40
2018-07-06T01:41:57.902Z,3.27
2018-07-06T01:44:31.596Z,3.37
2018-07-06T01:47:05.222Z,3.10
2018-07-06T01:49:38.889Z,3.27
2018-07-06T01:52:12.536Z,3.07
2018-07-06T01:54:46.299Z,3.13
2018-07-06T01:57:20.028Z,3.30
2018-07-06T01:59:53.569Z,3.03
2018-07-06T02:02:27.109Z,2.77
2018-07-06T02:05:00.870Z,2.40
2018-07-06T02:07:34.474Z,2.70
2018-07-06T02:10:08.140Z,2.73
2018-07-06T02:12:41.752Z,2.73
2018-07-06T02:15:15.336Z,2.80
2018-07-06T02:17:49.799Z,2.53
2018-07-06T02:20:23.350Z,2.80
2018-07-06T02:22:56.867Z,2.90
2018-07-06T02:25:30.454Z,2.87
2018-07-06T02:28:04.131Z,2.50
2018-07-06T02:30:37.648Z,2.93
2018-07-06T02:33:11.162Z,2.67
2018-07-06T02:35:44.843Z,2.77
2018-07-06T02:38:18.434Z,2.70
2018-07-06T02:40:51.908Z,2.90
2018-07-06T02:43:25.575Z,2.97
2018-07-06T02:45:59.304Z,2.77
2018-07-06T02:48:33.003Z,2.80
2018-07-06T02:51:06.592Z,2.57
2018-07-06T02:53:40.100Z,2.80
2018-07-06T02:56:13.766Z,2.97
2018-07-06T02:58:47.287Z,2.77
2018-07-06T03:01:21.035Z,2.40
2018-07-06T03:03:54.604Z,2.60
2018-07-06T03:06:28.188Z,2.70
2018-07-06T03:09:01.647Z,3.17
2018-07-06T03:11:35.323Z,2.83
2018-07-06T03:14:09.065Z,2.77
2018-07-06T03:16:42.649Z,2.87
2018-07-06T03:19:16.386Z,2.80
2018-07-06T03:21:53.008Z,2.90
2018-07-06T03:24:26.670Z,2.77
2018-07-06T03:27:00.279Z,3.23
2018-07-06T03:29:33.946Z,2.80
2018-07-06T03:32:07.439Z,2.70
2018-07-06T03:34:41.059Z,2.80
2018-07-06T03:37:14.718Z,3.23
2018-07-06T03:39:48.199Z,3.23
2018-07-06T03:42:21.807Z,3.23
2018-07-06T03:44:55.457Z,2.60
2018-07-06T03:47:28.987Z,3.10
2018-07-06T03:50:02.635Z,3.27
2018-07-06T03:52:36.268Z,3.00
2018-07-06T03:55:13.804Z,3.00
2018-07-06T03:57:47.454Z,3.07
2018-07-06T04:00:21.256Z,3.00
2018-07-06T04:02:56.869Z,3.07
2018-07-06T04:05:30.359Z,2.87
2018-07-06T04:08:04.110Z,2.60
2018-07-06T04:10:37.621Z,2.90
2018-07-06T04:13:11.452Z,2.30
2018-07-06T04:15:45.139Z,2.50
2018-07-06T04:18:18.942Z,2.67
2018-07-06T04:20:53.385Z,2.63
2018-07-06T04:23:27.122Z,2.40
2018-07-06T04:26:00.799Z,2.53
2018-07-06T04:28:34.543Z,2.67
2018-07-06T04:31:08.211Z,2.70
2018-07-06T04:33:41.786Z,2.50
2018-07-06T04:36:15.431Z,2.30
2018-07-06T04:38:49.095Z,2.50
2018-07-06T04:41:22.603Z,2.50
2018-07-06T04:43:56.307Z,2.43
2018-07-06T04:46:29.865Z,2.40
2018-07-06T04:49:03.569Z,2.00
2018-07-06T04:51:37.161Z,2.27
2018-07-06T04:54:10.904Z,2.73
2018-07-06T04:56:44.374Z,2.47
2018-07-06T04:59:18.000Z,2.60
2018-07-06T05:01:51.781Z,2.73
2018-07-06T05:04:25.378Z,4.00
2018-07-06T05:06:58.858Z,3.00
2018-07-06T05:09:33.045Z,2.97
2018-07-06T05:12:06.626Z,3.37
2018-07-06T05:14:40.348Z,3.30
2018-07-06T05:17:13.924Z,3.10
2018-07-06T05:19:47.473Z,2.70
2018-07-06T05:22:21.120Z,3.07
2018-07-06T05:24:54.755Z,3.00
2018-07-06T05:27:28.383Z,3.40
2018-07-06T05:30:02.051Z,3.37
2018-07-06T05:32:35.623Z,3.00
2018-07-06T05:35:09.322Z,3.17
2018-07-06T05:37:42.889Z,3.50
2018-07-06T05:40:16.448Z,3.60
2018-07-06T05:42:50.114Z,3.17
2018-07-06T05:45:23.627Z,3.03
2018-07-06T05:47:57.254Z,3.30
2018-07-06T05:50:30.872Z,3.60
2018-07-06T05:53:04.443Z,3.37
2018-07-06T05:55:38.044Z,3.20
2018-07-06T05:58:11.769Z,3.73
2018-07-06T06:00:45.508Z,3.63
2018-07-06T06:03:19.089Z,3.60
2018-07-06T06:05:52.805Z,3.97
2018-07-06T06:08:20.230Z,3.77
2018-07-06T06:10:48.425Z,3.80
2018-07-06T06:13:16.490Z,3.83
2018-07-06T06:15:44.486Z,4.03
2018-07-06T06:18:12.557Z,4.23
2018-07-06T06:20:40.563Z,4.40
2018-07-06T06:23:08.588Z,3.93
2018-07-06T06:25:36.739Z,4.23
2018-07-06T06:28:04.810Z,4.20
2018-07-06T06:30:32.817Z,4.33
2018-07-06T06:33:00.956Z,4.73
2018-07-06T06:35:29.022Z,4.60
2018-07-06T06:37:57.753Z,4.90
2018-07-06T06:40:25.859Z,5.07
2018-07-06T06:42:53.955Z,4.33
2018-07-06T06:45:21.996Z,4.50
2018-07-06T06:47:50.078Z,4.23
2018-07-06T06:50:18.218Z,5.03
2018-07-06T06:52:46.259Z,5.00
2018-07-06T06:55:14.808Z,4.90
2018-07-06T06:57:42.901Z,4.57
2018-07-06T07:00:10.976Z,4.33
2018-07-06T07:02:39.108Z,4.20
2018-07-06T07:05:07.191Z,4.10
2018-07-06T07:07:35.356Z,5.03
2018-07-06T07:10:03.401Z,4.80
2018-07-06T07:12:31.464Z,4.00
2018-07-06T07:15:00.536Z,4.40
2018-07-06T07:17:29.248Z,3.83
2018-07-06T07:19:57.269Z,4.30
2018-07-06T07:22:25.416Z,5.27
2018-07-06T07:24:53.509Z,4.80
2018-07-06T07:27:21.654Z,4.80
2018-07-06T07:29:49.706Z,4.70
2018-07-06T07:32:18.316Z,4.90
2018-07-06T07:34:46.328Z,4.37
2018-07-06T07:37:14.432Z,5.10
2018-07-06T07:41:51.559Z,4.87
2018-07-06T07:44:19.720Z,4.50
2018-07-06T07:46:47.907Z,4.80
2018-07-06T07:49:15.923Z,4.90
2018-07-06T07:51:51.287Z,5.27
2018-07-06T07:54:21.914Z,4.50
2018-07-06T07:56:50.019Z,4.20
2018-07-06T07:59:18.314Z,5.13
2018-07-06T08:01:46.382Z,5.00
2018-07-06T08:04:14.455Z,5.30
2018-07-06T08:06:42.514Z,4.87
2018-07-06T08:09:10.603Z,5.47
2018-07-06T08:11:38.693Z,5.20
2018-07-06T08:14:06.746Z,5.10
2018-07-06T08:16:34.852Z,5.00
2018-07-06T08:19:02.939Z,4.97
2018-07-06T08:21:31.005Z,5.53
2018-07-06T08:23:58.984Z,5.07
2018-07-06T08:26:27.537Z,5.27
2018-07-06T08:28:55.606Z,5.33
2018-07-06T08:31:23.708Z,5.70
2018-07-06T08:33:57.423Z,5.50
2018-07-06T08:36:30.965Z,5.00
2018-07-06T08:38:59.009Z,4.93
2018-07-06T08:41:27.059Z,5.37
2018-07-06T08:43:55.276Z,5.50
2018-07-06T08:46:23.327Z,5.40
2018-07-06T08:48:51.350Z,5.43
2018-07-06T08:51:19.411Z,5.43
2018-07-06T08:53:47.473Z,5.40
2018-07-06T08:56:15.489Z,5.93
2018-07-06T08:58:43.654Z,5.17
2018-07-06T09:01:11.727Z,4.83
2018-07-06T09:03:39.760Z,5.97
2018-07-06T09:06:07.783Z,5.83
2018-07-06T09:08:36.153Z,5.13
2018-07-06T09:11:04.214Z,5.43
2018-07-06T09:13:32.305Z,5.37
2018-07-06T09:16:00.471Z,5.47
2018-07-06T09:18:28.470Z,5.40
2018-07-06T09:20:56.557Z,5.57
2018-07-06T09:23:24.576Z,5.53
2018-07-06T09:25:53.054Z,5.00
2018-07-06T09:28:20.739Z,6.00
2018-07-06T09:30:48.914Z,5.00
2018-07-06T09:33:16.937Z,5.20
2018-07-06T09:35:44.984Z,5.30
2018-07-06T09:38:12.995Z,5.73
2018-07-06T09:40:41.022Z,5.20
2018-07-06T09:43:09.071Z,5.20
2018-07-06T09:45:37.120Z,5.47
2018-07-06T09:48:05.399Z,4.90
2018-07-06T09:50:33.500Z,5.90
2018-07-06T09:53:01.763Z,5.50
2018-07-06T09:55:29.939Z,5.70
2018-07-06T09:57:58.543Z,5.07
2018-07-06T10:00:31.952Z,5.90
2018-07-06T10:02:59.984Z,5.47
2018-07-06T10:05:28.052Z,5.07
2018-07-06T10:07:56.124Z,5.60
2018-07-06T10:10:24.229Z,5.30
2018-07-06T10:12:52.442Z,5.80
2018-07-06T10:15:20.539Z,5.53
2018-07-06T10:17:48.567Z,6.83
2018-07-06T10:20:16.626Z,6.03
2018-07-06T10:22:44.717Z,5.73
2018-07-06T10:25:12.837Z,6.73
2018-07-06T10:27:45.220Z,6.30
2018-07-06T10:30:14.951Z,7.00
2018-07-06T10:32:42.990Z,6.63
2018-07-06T10:35:10.974Z,7.30
2018-07-06T10:37:39.008Z,7.60
2018-07-06T10:40:07.130Z,7.77
2018-07-06T10:42:35.317Z,7.63
2018-07-06T10:45:03.481Z,7.70
2018-07-06T10:47:31.601Z,7.50
2018-07-06T10:49:59.635Z,8.90
2018-07-06T10:52:27.692Z,8.30
2018-07-06T10:54:55.751Z,8.13
2018-07-06T10:57:23.744Z,8.40
2018-07-06T10:59:51.812Z,7.40
2018-07-06T11:02:19.784Z,7.67
2018-07-06T11:04:47.827Z,8.50
2018-07-06T11:07:15.925Z,8.10
2018-07-06T11:09:43.943Z,8.40
2018-07-06T11:12:12.032Z,8.13
2018-07-06T11:14:40.111Z,7.40
2018-07-06T11:17:08.181Z,8.67
2018-07-06T11:19:36.195Z,8.43
2018-07-06T11:22:04.279Z,9.00
2018-07-06T11:24:32.321Z,8.67
2018-07-06T11:27:00.342Z,8.93
2018-07-06T11:29:28.462Z,8.30
2018-07-06T11:31:56.459Z,8.60
2018-07-06T11:34:24.471Z,8.87
2018-07-06T11:36:52.604Z,8.60
2018-07-06T11:39:20.696Z,7.90
2018-07-06T11:41:48.755Z,7.80
2018-07-06T11:44:16.747Z,7.43
2018-07-06T11:46:44.764Z,8.90
2018-07-06T11:49:12.885Z,7.80
2018-07-06T11:51:40.881Z,7.30
2018-07-06T11:54:08.922Z,7.80
2018-07-06T11:56:36.915Z,7.33
2018-07-06T11:59:04.886Z,6.73
2018-07-06T12:01:32.992Z,7.00
2018-07-06T12:04:01.084Z,6.37
2018-07-06T12:07:32.684Z,6.90
2018-07-06T12:10:00.900Z,6.70
2018-07-06T12:12:28.984Z,5.93
2018-07-06T12:14:57.111Z,5.97
2018-07-06T12:17:25.176Z,6.33
2018-07-06T12:19:53.256Z,5.80
2018-07-06T12:22:21.345Z,6.00
2018-07-06T12:24:49.362Z,5.40
2018-07-06T12:27:17.442Z,5.77
2018-07-06T12:29:45.441Z,5.47
2018-07-06T12:32:13.536Z,6.03
2018-07-06T12:34:41.620Z,5.77
2018-07-06T12:37:09.646Z,5.77
2018-07-06T12:39:37.794Z,6.40
2018-07-06T12:42:05.807Z,6.07
2018-07-06T12:44:33.804Z,6.43
2018-07-06T12:47:01.879Z,6.10
2018-07-06T12:49:29.904Z,5.80
2018-07-06T12:51:57.874Z,5.33
2018-07-06T12:54:25.920Z,6.10
2018-07-06T12:56:53.977Z,5.83
2018-07-06T12:59:21.995Z,5.90
2018-07-06T13:01:50.085Z,6.20
2018-07-06T13:04:18.100Z,5.67
2018-07-06T13:06:46.110Z,4.70
2018-07-06T13:09:14.119Z,5.47
2018-07-06T13:11:42.122Z,5.37
2018-07-06T13:14:10.170Z,5.00
2018-07-06T13:16:38.168Z,5.20
2018-07-06T13:19:06.356Z,4.97
2018-07-06T13:21:34.420Z,4.60
2018-07-06T13:24:02.529Z,4.23
2018-07-06T13:26:30.736Z,4.33
2018-07-06T13:28:58.794Z,3.73
2018-07-06T13:31:26.784Z,3.57
2018-07-06T13:33:54.851Z,3.60
2018-07-06T13:36:23.925Z,3.60
2018-07-06T13:38:52.290Z,3.63
2018-07-06T13:41:20.323Z,3.43
2018-07-06T13:43:48.378Z,3.87
2018-07-06T13:46:16.411Z,3.40
2018-07-06T13:48:44.564Z,3.60
2018-07-06T13:51:12.673Z,3.40
2018-07-06T13:53:40.679Z,3.03
2018-07-06T13:56:08.788Z,3.20
2018-07-06T14:01:25.609Z,3.40
2018-07-06T14:03:53.574Z,3.20
2018-07-06T14:06:21.603Z,3.87
2018-07-06T14:08:49.710Z,3.40
2018-07-06T14:11:17.740Z,3.30
2018-07-06T14:13:46.029Z,2.93
2018-07-06T14:16:14.322Z,3.00
2018-07-06T14:18:42.393Z,3.23
2018-07-06T14:21:10.588Z,3.47
2018-07-06T14:23:38.635Z,3.20
2018-07-06T14:26:06.692Z,2.87
2018-07-06T14:28:34.897Z,3.10
2018-07-06T14:31:03.009Z,3.10
2018-07-06T14:33:31.037Z,2.90
2018-07-06T14:35:59.149Z,3.20
2018-07-06T14:38:27.276Z,2.80
2018-07-06T14:40:55.371Z,2.77
2018-07-06T14:43:23.370Z,2.60
2018-07-06T14:45:51.389Z,2.40
2018-07-06T14:50:46.543Z,2.80
2018-07-06T14:53:14.584Z,3.10
2018-07-06T15:05:31.459Z,2.63
2018-07-06T15:07:59.622Z,2.77
2018-07-06T15:10:27.655Z,2.70
2018-07-06T15:12:56.020Z,3.00
2018-07-06T15:15:23.990Z,2.63
2018-07-06T15:23:01.939Z,2.77
2018-07-06T15:25:30.036Z,2.27
2018-07-06T15:27:58.105Z,2.40
2018-07-06T15:30:26.159Z,2.60
2018-07-06T15:35:21.533Z,2.47
2018-07-06T15:37:50.407Z,2.67
2018-07-06T15:40:18.452Z,2.90
2018-07-06T15:42:46.497Z,2.83
2018-07-06T15:45:14.672Z,3.13
2018-07-06T15:47:42.775Z,2.83
2018-07-06T15:50:10.832Z,2.83
2018-07-06T15:52:38.828Z,2.80
2018-07-06T15:55:07.550Z,2.80
2018-07-06T15:57:35.675Z,2.83
2018-07-06T16:00:03.892Z,2.50
2018-07-06T16:02:32.068Z,2.80
2018-07-06T16:05:00.108Z,3.00
2018-07-06T16:07:28.132Z,2.90
2018-07-06T16:09:56.173Z,2.77
2018-07-06T16:12:24.278Z,2.90
2018-07-06T16:14:52.545Z,2.70
2018-07-06T16:19:47.734Z,3.40
2018-07-06T16:22:15.745Z,3.77
2018-07-06T16:24:44.004Z,3.77
2018-07-06T16:27:12.080Z,3.03
2018-07-06T16:29:40.136Z,2.97
2018-07-06T16:32:08.238Z,3.60
2018-07-06T16:34:36.300Z,3.17
2018-07-06T16:37:04.456Z,2.80
2018-07-06T16:39:32.441Z,2.93
2018-07-06T16:42:00.519Z,2.43
2018-07-06T16:44:28.572Z,3.00
2018-07-06T16:46:56.642Z,3.10
2018-07-06T16:49:24.631Z,3.20
2018-07-06T16:51:52.905Z,2.73
2018-07-06T16:54:20.972Z,3.13
2018-07-06T16:56:49.033Z,3.17
2018-07-06T16:59:17.057Z,2.90
2018-07-06T17:01:45.296Z,3.00
2018-07-06T17:04:13.325Z,2.97
2018-07-06T17:06:41.487Z,3.10
2018-07-06T17:09:09.417Z,2.80
2018-07-06T17:11:37.463Z,3.13
2018-07-06T17:14:05.530Z,3.67
2018-07-06T17:16:33.519Z,3.93
2018-07-06T17:19:01.680Z,4.10
2018-07-06T17:21:29.779Z,3.50
2018-07-06T17:23:57.778Z,3.70
2018-07-06T17:26:26.019Z,3.40
2018-07-06T17:28:54.047Z,3.07
2018-07-06T17:31:22.178Z,2.90
2018-07-06T17:33:50.261Z,3.43
2018-07-06T17:36:18.336Z,3.17
2018-07-06T17:38:46.337Z,3.70
2018-07-06T17:41:14.483Z,3.60
2018-07-06T17:43:42.699Z,3.40
2018-07-06T17:46:10.765Z,3.03
2018-07-06T17:48:38.809Z,3.40
2018-07-06T17:51:06.840Z,3.03
2018-07-06T17:53:34.921Z,3.03
2018-07-06T17:56:02.995Z,3.80
2018-07-06T17:58:31.111Z,3.43
2018-07-06T18:00:59.639Z,3.70
2018-07-06T18:03:27.676Z,3.23
2018-07-06T18:05:55.917Z,3.27
2018-07-06T18:08:24.148Z,3.20
2018-07-06T18:10:52.159Z,3.30
2018-07-06T18:13:20.764Z,3.17
2018-07-06T18:15:48.928Z,3.40
2018-07-06T18:18:17.050Z,3.30
2018-07-06T18:20:45.067Z,3.50
2018-07-06T18:23:13.215Z,3.20
2018-07-06T18:25:41.251Z,3.13
2018-07-06T18:28:09.349Z,3.43
2018-07-06T18:30:37.423Z,3.63
2018-07-06T18:33:05.479Z,3.37
2018-07-06T18:35:33.536Z,3.00
2018-07-06T18:38:01.804Z,2.70
2018-07-06T18:40:29.898Z,2.40
2018-07-06T18:42:58.135Z,2.27
2018-07-06T18:45:26.475Z,2.93
2018-07-06T18:47:54.552Z,2.60
2018-07-06T18:51:26.157Z,2.40
2018-07-06T19:01:16.396Z,2.80
2018-07-06T19:03:44.606Z,2.50
2018-07-06T19:06:12.744Z,2.30
2018-07-06T19:08:41.021Z,2.60
2018-07-06T19:11:09.192Z,2.57
2018-07-06T19:13:37.362Z,2.80
2018-07-06T19:16:05.629Z,2.20
2018-07-06T19:18:33.758Z,2.50
2018-07-06T19:21:05.690Z,2.00
2018-07-06T19:30:55.767Z,2.30
2018-07-06T19:43:13.102Z,2.33
2018-07-06T19:45:47.711Z,1.80
2018-07-06T19:48:15.869Z,2.27
2018-07-06T19:50:43.916Z,2.73
2018-07-06T19:53:12.244Z,2.63
2018-07-06T19:55:40.278Z,2.50
2018-07-06T19:58:08.681Z,2.40
2018-07-06T20:00:36.794Z,2.20
2018-07-06T20:03:05.056Z,2.30
2018-07-06T20:05:33.519Z,2.70
2018-07-06T20:08:01.530Z,2.60
2018-07-06T20:10:29.609Z,2.97
2018-07-06T20:12:57.956Z,2.60
2018-07-06T20:15:26.214Z,2.23
2018-07-06T20:17:54.441Z,2.37
2018-07-06T20:20:22.455Z,2.57
2018-07-06T20:22:50.591Z,2.57
2018-07-06T20:25:18.653Z,2.70
2018-07-06T20:27:46.982Z,2.40
2018-07-06T20:30:15.577Z,2.43
2018-07-06T20:32:43.849Z,2.57
2018-07-06T20:35:12.162Z,2.53
2018-07-06T20:37:40.501Z,2.93
2018-07-06T20:40:08.878Z,2.20
2018-07-06T20:42:36.879Z,2.70
2018-07-06T20:45:05.308Z,2.63
2018-07-06T20:47:33.400Z,2.80
2018-07-06T20:50:01.950Z,2.57
2018-07-06T20:52:30.171Z,2.40
2018-07-06T20:54:58.356Z,3.00
2018-07-06T20:57:26.696Z,2.63
2018-07-06T20:59:54.887Z,2.60
2018-07-06T21:02:23.489Z,2.30
2018-07-06T21:04:51.685Z,2.20
2018-07-06T21:07:20.149Z,2.70
2018-07-06T21:09:48.153Z,2.37
2018-07-06T21:12:16.457Z,2.70
2018-07-06T21:14:44.847Z,2.80
2018-07-06T21:17:12.961Z,2.63
2018-07-06T21:19:41.024Z,2.83
2018-07-06T21:22:09.307Z,2.60
2018-07-06T21:24:37.302Z,2.80
